createdAt,value
2018-03-17T00:00:10.903Z,-1.50
2018-03-17T00:03:21.695Z,-1.60
2018-03-17T00:06:31.733Z,-1.60
2018-03-17T00:09:42.785Z,-1.60
2018-03-17T00:12:53.182Z,-1.60
2018-03-17T00:16:03.705Z,-1.60
2018-03-17T00:19:14.036Z,-1.60
2018-03-17T00:22:24.766Z,-1.60
2018-03-17T00:25:34.719Z,-1.70
2018-03-17T00:28:45.347Z,-1.70
2018-03-17T00:31:55.490Z,-1.70
2018-03-17T00:35:05.242Z,-1.70
2018-03-17T00:38:15.156Z,-1.70
2018-03-17T00:41:25.947Z,-1.80
2018-03-17T00:44:36.179Z,-1.90
2018-03-17T00:47:46.805Z,-1.90
2018-03-17T00:50:57.461Z,-1.80
2018-03-17T00:54:07.300Z,-1.90
2018-03-17T00:57:17.420Z,-1.90
2018-03-17T01:00:27.464Z,-1.90
2018-03-17T01:03:37.219Z,-1.90
2018-03-17T01:06:47.309Z,-1.90
2018-03-17T01:09:57.082Z,-1.80
2018-03-17T01:13:08.182Z,-1.90
2018-03-17T01:16:18.495Z,-1.90
2018-03-17T01:19:28.312Z,-1.90
2018-03-17T01:22:38.896Z,-2.00
2018-03-17T01:25:48.862Z,-2.00
2018-03-17T01:28:59.561Z,-2.00
2018-03-17T01:32:09.511Z,-2.10
2018-03-17T01:35:20.317Z,-2.20
2018-03-17T01:38:31.361Z,-2.20
2018-03-17T01:41:41.279Z,-2.20
2018-03-17T01:44:51.406Z,-2.20
2018-03-17T01:48:01.415Z,-2.20
2018-03-17T01:51:12.436Z,-2.10
2018-03-17T01:54:31.621Z,-2.20
2018-03-17T01:57:41.894Z,-2.20
2018-03-17T02:00:51.725Z,-2.20
2018-03-17T02:04:02.509Z,-2.30
2018-03-17T02:07:12.787Z,-2.30
2018-03-17T02:10:22.720Z,-2.30
2018-03-17T02:13:32.647Z,-2.30
2018-03-17T02:16:42.857Z,-2.50
2018-03-17T02:19:52.670Z,-2.50
2018-03-17T02:23:02.478Z,-2.50
2018-03-17T02:26:12.530Z,-2.50
2018-03-17T02:29:22.348Z,-2.60
2018-03-17T02:32:33.075Z,-2.60
2018-03-17T02:35:42.921Z,-2.60
2018-03-17T02:38:53.627Z,-2.70
2018-03-17T02:42:03.770Z,-2.70
2018-03-17T02:45:13.576Z,-2.70
2018-03-17T02:48:23.472Z,-2.70
2018-03-17T02:51:33.267Z,-2.80
2018-03-17T02:54:43.151Z,-2.80
2018-03-17T02:57:53.162Z,-2.90
2018-03-17T03:01:03.127Z,-2.90
2018-03-17T03:04:13.727Z,-2.80
2018-03-17T03:07:23.776Z,-2.90
2018-03-17T03:10:34.320Z,-3.10
2018-03-17T03:13:44.386Z,-3.10
2018-03-17T03:16:54.206Z,-3.00
2018-03-17T03:20:04.822Z,-3.10
2018-03-17T03:23:14.993Z,-3.10
2018-03-17T03:26:25.082Z,-3.10
2018-03-17T03:29:34.905Z,-3.10
2018-03-17T03:32:45.603Z,-3.20
2018-03-17T03:35:55.790Z,-3.20
2018-03-17T03:39:05.690Z,-3.20
2018-03-17T03:42:16.500Z,-3.20
2018-03-17T03:45:27.221Z,-3.20
2018-03-17T03:48:37.424Z,-3.20
2018-03-17T03:51:47.298Z,-3.30
2018-03-17T03:54:57.103Z,-3.30
2018-03-17T03:58:06.932Z,-3.40
2018-03-17T04:01:17.267Z,-3.40
2018-03-17T04:04:27.163Z,-3.40
2018-03-17T04:07:37.001Z,-3.40
2018-03-17T04:10:46.827Z,-3.50
2018-03-17T04:13:56.601Z,-3.50
2018-03-17T04:17:06.414Z,-3.50
2018-03-17T04:20:16.945Z,-3.60
2018-03-17T04:23:27.189Z,-3.60
2018-03-17T04:26:36.920Z,-3.60
2018-03-17T04:29:46.893Z,-3.60
2018-03-17T04:32:56.618Z,-3.60
2018-03-17T04:36:06.606Z,-3.70
2018-03-17T04:39:16.461Z,-3.60
2018-03-17T04:42:27.083Z,-3.70
2018-03-17T04:45:37.211Z,-3.70
2018-03-17T04:48:47.139Z,-3.60
2018-03-17T04:51:57.565Z,-3.60
2018-03-17T04:55:07.463Z,-3.70
2018-03-17T04:58:18.179Z,-3.70
2018-03-17T05:01:27.928Z,-3.70
2018-03-17T05:04:37.832Z,-3.80
2018-03-17T05:07:47.835Z,-3.70
2018-03-17T05:10:57.790Z,-3.80
2018-03-17T05:14:07.535Z,-3.70
2018-03-17T05:17:17.404Z,-3.80
2018-03-17T05:20:27.530Z,-3.70
2018-03-17T05:23:38.218Z,-3.80
2018-03-17T05:26:48.147Z,-3.80
2018-03-17T05:29:58.792Z,-3.90
2018-03-17T05:33:08.921Z,-3.90
2018-03-17T05:36:18.801Z,-3.90
2018-03-17T05:39:28.566Z,-3.90
2018-03-17T05:42:38.658Z,-4.00
2018-03-17T05:45:49.032Z,-4.00
2018-03-17T05:49:00.043Z,-4.10
2018-03-17T05:52:09.858Z,-4.20
2018-03-17T05:55:19.710Z,-4.00
2018-03-17T05:58:29.652Z,-4.10
2018-03-17T06:01:40.371Z,-4.20
2018-03-17T06:04:50.702Z,-4.20
2018-03-17T06:08:00.715Z,-4.30
2018-03-17T06:11:10.504Z,-4.20
2018-03-17T06:14:20.270Z,-4.30
2018-03-17T06:17:30.152Z,-4.30
2018-03-17T06:20:40.360Z,-4.30
2018-03-17T06:23:50.433Z,-4.30
2018-03-17T06:27:01.142Z,-4.30
2018-03-17T06:30:11.173Z,-4.40
2018-03-17T06:33:22.063Z,-4.30
2018-03-17T06:36:32.516Z,-4.40
2018-03-17T06:39:42.365Z,-4.40
2018-03-17T06:42:53.085Z,-4.50
2018-03-17T06:46:03.166Z,-4.50
2018-03-17T06:49:13.094Z,-4.40
2018-03-17T06:52:22.933Z,-4.50
2018-03-17T06:55:32.877Z,-4.50
2018-03-17T06:58:42.827Z,-4.60
2018-03-17T07:01:52.781Z,-4.60
2018-03-17T07:05:03.218Z,-4.60
2018-03-17T07:08:13.770Z,-4.70
2018-03-17T07:11:23.743Z,-4.70
2018-03-17T07:14:33.554Z,-4.70
2018-03-17T07:17:43.763Z,-4.80
2018-03-17T07:20:53.523Z,-4.80
2018-03-17T07:24:04.130Z,-4.90
2018-03-17T07:27:14.267Z,-4.90
2018-03-17T07:30:23.986Z,-4.80
2018-03-17T07:33:33.820Z,-4.90
2018-03-17T07:36:43.682Z,-4.90
2018-03-17T07:39:53.725Z,-4.80
2018-03-17T07:43:03.592Z,-4.80
2018-03-17T07:46:13.362Z,-4.90
2018-03-17T07:49:23.227Z,-4.90
2018-03-17T07:52:33.069Z,-4.90
2018-03-17T07:55:42.944Z,-4.90
2018-03-17T07:58:52.841Z,-5.00
2018-03-17T08:02:02.856Z,-5.00
2018-03-17T08:05:12.763Z,-5.00
2018-03-17T08:08:22.756Z,-4.90
2018-03-17T08:11:32.461Z,-5.00
2018-03-17T08:14:42.183Z,-4.90
2018-03-17T08:17:52.747Z,-5.00
2018-03-17T08:21:02.882Z,-5.00
2018-03-17T08:24:13.656Z,-4.90
2018-03-17T08:27:23.673Z,-4.90
2018-03-17T08:30:34.276Z,-5.00
2018-03-17T08:33:44.908Z,-4.90
2018-03-17T08:36:55.565Z,-4.90
2018-03-17T08:40:05.841Z,-4.90
2018-03-17T08:43:15.594Z,-4.80
2018-03-17T08:46:25.724Z,-4.80
2018-03-17T08:49:35.503Z,-4.80
2018-03-17T08:52:45.266Z,-4.80
2018-03-17T08:55:55.436Z,-4.70
2018-03-17T08:59:05.384Z,-4.60
2018-03-17T09:02:15.141Z,-4.70
2018-03-17T09:05:25.194Z,-4.60
2018-03-17T09:08:35.378Z,-4.60
2018-03-17T09:11:46.098Z,-4.50
2018-03-17T09:14:56.776Z,-4.50
2018-03-17T09:18:07.355Z,-4.60
2018-03-17T09:21:18.613Z,-4.50
2018-03-17T09:24:30.749Z,-4.50
2018-03-17T09:27:41.558Z,-4.50
2018-03-17T09:30:52.362Z,-4.40
2018-03-17T09:34:06.055Z,-4.30
2018-03-17T09:37:16.553Z,-4.30
2018-03-17T09:40:26.624Z,-4.30
2018-03-17T09:43:36.556Z,-4.30
2018-03-17T09:46:47.293Z,-4.30
2018-03-17T09:49:57.240Z,-4.30
2018-03-17T09:53:07.257Z,-4.30
2018-03-17T09:56:17.862Z,-4.20
2018-03-17T09:59:29.522Z,-4.20
2018-03-17T10:02:41.838Z,-4.30
2018-03-17T10:05:52.001Z,-4.30
2018-03-17T10:09:02.124Z,-4.20
2018-03-17T10:12:14.217Z,-4.20
2018-03-17T10:15:24.480Z,-4.30
2018-03-17T10:18:35.095Z,-4.30
2018-03-17T10:21:45.376Z,-4.30
2018-03-17T10:24:56.156Z,-4.50
2018-03-17T10:28:06.110Z,-4.50
2018-03-17T10:31:16.919Z,-4.40
2018-03-17T10:34:26.742Z,-4.50
2018-03-17T10:37:36.821Z,-4.40
2018-03-17T10:40:47.605Z,-4.40
2018-03-17T10:43:59.085Z,-4.40
2018-03-17T10:47:18.746Z,-4.30
2018-03-17T10:50:29.626Z,-4.30
2018-03-17T10:53:40.264Z,-4.40
2018-03-17T10:56:51.888Z,-4.30
2018-03-17T11:00:02.699Z,-4.40
2018-03-17T11:03:13.052Z,-4.40
2018-03-17T11:06:23.133Z,-4.20
2018-03-17T11:09:33.088Z,-4.20
2018-03-17T11:12:44.042Z,-4.20
2018-03-17T11:15:55.339Z,-4.10
2018-03-17T11:22:42.116Z,-4.10
2018-03-17T11:25:53.399Z,-4.20
2018-03-17T11:29:03.645Z,-4.20
2018-03-17T11:32:14.659Z,-4.10
2018-03-17T11:35:25.802Z,-4.00
2018-03-17T11:38:35.948Z,-4.10
2018-03-17T11:41:46.755Z,-4.10
2018-03-17T11:44:56.935Z,-4.00
2018-03-17T11:48:06.659Z,-4.00
2018-03-17T11:51:16.833Z,-3.80
2018-03-17T11:54:28.069Z,-3.90
2018-03-17T11:57:38.858Z,-3.90
2018-03-17T12:00:48.799Z,-3.90
2018-03-17T12:03:59.980Z,-3.70
2018-03-17T12:07:10.688Z,-3.80
2018-03-17T12:10:20.623Z,-3.80
2018-03-17T12:13:30.569Z,-3.90
2018-03-17T12:16:40.525Z,-4.00
2018-03-17T12:19:51.400Z,-4.10
2018-03-17T12:23:02.238Z,-4.10
2018-03-17T12:26:12.092Z,-4.00
2018-03-17T12:29:24.085Z,-4.20
2018-03-17T12:32:35.691Z,-4.20
2018-03-17T12:35:46.477Z,-4.20
2018-03-17T12:38:57.062Z,-4.20
2018-03-17T12:42:07.926Z,-4.10
2018-03-17T12:45:19.687Z,-4.20
2018-03-17T12:48:30.369Z,-4.20
2018-03-17T12:51:42.180Z,-4.30
2018-03-17T12:54:52.739Z,-4.30
2018-03-17T12:58:02.520Z,-4.20
2018-03-17T13:01:12.388Z,-4.30
2018-03-17T13:04:23.051Z,-4.50
2018-03-17T13:07:33.012Z,-4.40
2018-03-17T13:10:43.024Z,-4.40
2018-03-17T13:13:52.918Z,-4.30
2018-03-17T13:17:03.624Z,-4.30
2018-03-17T13:20:13.598Z,-4.30
2018-03-17T13:23:23.622Z,-4.30
2018-03-17T13:26:34.348Z,-4.20
2018-03-17T13:29:46.581Z,-4.30
2018-03-17T13:32:58.309Z,-4.40
2018-03-17T13:36:20.595Z,-4.30
2018-03-17T13:39:30.984Z,-4.50
2018-03-17T13:42:42.491Z,-4.60
2018-03-17T13:45:53.795Z,-4.60
2018-03-17T13:49:05.993Z,-4.60
2018-03-17T13:52:16.219Z,-4.50
2018-03-17T13:55:27.246Z,-4.60
2018-03-17T13:58:38.352Z,-4.50
2018-03-17T14:01:50.407Z,-4.50
2018-03-17T14:05:01.648Z,-4.40
2018-03-17T14:08:13.508Z,-4.50
2018-03-17T14:11:24.519Z,-4.40
2018-03-17T14:14:35.033Z,-4.40
2018-03-17T14:17:45.169Z,-4.50
2018-03-17T14:20:55.940Z,-4.40
2018-03-17T14:24:07.019Z,-4.50
2018-03-17T14:27:17.904Z,-4.50
2018-03-17T14:30:28.522Z,-4.40
2018-03-17T14:33:38.801Z,-4.40
2018-03-17T14:36:49.465Z,-4.50
2018-03-17T14:40:01.826Z,-4.50
2018-03-17T14:43:12.450Z,-4.70
2018-03-17T14:46:23.954Z,-4.60
2018-03-17T14:49:33.906Z,-4.60
2018-03-17T14:52:44.811Z,-4.60
2018-03-17T14:55:56.404Z,-4.60
2018-03-17T14:59:07.696Z,-4.80
2018-03-17T15:02:19.495Z,-4.80
2018-03-17T15:05:30.366Z,-4.80
2018-03-17T15:08:40.966Z,-4.70
2018-03-17T15:11:52.168Z,-4.80
2018-03-17T15:15:06.325Z,-4.80
2018-03-17T15:18:16.503Z,-4.90
2018-03-17T15:21:26.839Z,-4.90
2018-03-17T15:24:38.523Z,-4.70
2018-03-17T15:27:48.490Z,-4.80
2018-03-17T15:30:59.324Z,-5.00
2018-03-17T15:34:10.294Z,-5.00
2018-03-17T15:37:21.048Z,-5.00
2018-03-17T15:40:31.369Z,-4.90
2018-03-17T15:43:42.107Z,-5.00
2018-03-17T15:46:52.050Z,-4.90
2018-03-17T15:50:03.392Z,-4.90
2018-03-17T15:53:14.594Z,-5.00
2018-03-17T15:56:24.462Z,-5.00
2018-03-17T15:59:35.249Z,-4.90
2018-03-17T16:02:46.691Z,-5.00
2018-03-17T16:05:57.230Z,-5.00
2018-03-17T16:09:07.765Z,-5.00
2018-03-17T16:12:18.530Z,-5.10
2018-03-17T16:15:29.059Z,-5.00
2018-03-17T16:18:39.755Z,-5.10
2018-03-17T16:21:50.416Z,-5.10
2018-03-17T16:25:00.339Z,-5.20
2018-03-17T16:28:10.983Z,-5.10
2018-03-17T16:31:21.795Z,-5.20
2018-03-17T16:34:32.157Z,-5.10
2018-03-17T16:37:42.385Z,-5.10
2018-03-17T16:40:52.781Z,-5.10
2018-03-17T16:44:03.391Z,-5.10
2018-03-17T16:47:13.187Z,-5.10
2018-03-17T16:50:23.472Z,-5.10
2018-03-17T16:53:34.935Z,-5.20
2018-03-17T16:56:45.073Z,-5.20
2018-03-17T16:59:55.884Z,-5.20
2018-03-17T17:03:05.870Z,-5.20
2018-03-17T17:06:18.867Z,-5.20
2018-03-17T17:09:29.542Z,-5.20
2018-03-17T17:12:40.276Z,-5.20
2018-03-17T17:15:51.048Z,-5.20
2018-03-17T17:19:01.776Z,-5.20
2018-03-17T17:22:11.838Z,-5.30
2018-03-17T17:25:22.630Z,-5.30
2018-03-17T17:28:32.823Z,-5.20
2018-03-17T17:31:44.352Z,-5.20
2018-03-17T17:34:54.332Z,-5.20
2018-03-17T17:38:05.184Z,-5.10
2018-03-17T17:41:15.733Z,-5.20
2018-03-17T17:44:26.322Z,-5.10
2018-03-17T17:47:36.135Z,-5.20
2018-03-17T17:50:46.339Z,-5.10
2018-03-17T17:53:56.691Z,-5.10
2018-03-17T17:57:06.852Z,-5.10
2018-03-17T18:00:17.898Z,-5.10
2018-03-17T18:03:28.583Z,-5.10
2018-03-17T18:06:38.892Z,-5.10
2018-03-17T18:09:50.441Z,-5.10
2018-03-17T18:13:00.624Z,-5.10
2018-03-17T18:16:11.349Z,-5.20
2018-03-17T18:19:21.462Z,-5.20
2018-03-17T18:22:32.428Z,-5.10
2018-03-17T18:25:42.471Z,-5.20
2018-03-17T18:28:52.414Z,-5.20
2018-03-17T18:32:02.416Z,-5.20
2018-03-17T18:35:13.102Z,-5.10
2018-03-17T18:38:23.105Z,-5.20
2018-03-17T18:41:33.797Z,-5.20
2018-03-17T18:44:44.014Z,-5.20
2018-03-17T18:47:55.622Z,-5.20
2018-03-17T18:51:05.215Z,-5.30
2018-03-17T18:54:15.360Z,-5.20
2018-03-17T18:57:25.160Z,-5.20
2018-03-17T19:00:36.059Z,-5.20
2018-03-17T19:03:46.883Z,-5.20
2018-03-17T19:06:56.739Z,-5.20
2018-03-17T19:10:07.814Z,-5.20
2018-03-17T19:13:18.346Z,-5.30
2018-03-17T19:16:28.682Z,-5.30
2018-03-17T19:19:39.478Z,-5.30
2018-03-17T19:22:49.910Z,-5.30
2018-03-17T19:26:00.681Z,-5.30
2018-03-17T19:29:11.459Z,-5.20
2018-03-17T19:32:22.889Z,-5.30
2018-03-17T19:35:34.334Z,-5.30
2018-03-17T19:38:44.673Z,-5.30
2018-03-17T19:41:56.329Z,-5.30
2018-03-17T19:45:06.558Z,-5.30
2018-03-17T19:48:17.721Z,-5.40
2018-03-17T19:51:28.247Z,-5.40
2018-03-17T19:54:38.950Z,-5.40
2018-03-17T19:57:48.562Z,-5.40
2018-03-17T20:00:59.503Z,-5.40
2018-03-17T20:04:09.674Z,-5.40
2018-03-17T20:07:20.364Z,-5.30
2018-03-17T20:10:30.591Z,-5.30
2018-03-17T20:13:41.301Z,-5.40
2018-03-17T20:16:52.101Z,-5.40
2018-03-17T20:20:02.710Z,-5.30
2018-03-17T20:23:12.477Z,-5.30
2018-03-17T20:26:23.436Z,-5.40
2018-03-17T20:29:34.676Z,-5.30
2018-03-17T20:32:46.057Z,-5.40
2018-03-17T20:39:33.490Z,-5.40
2018-03-17T20:42:43.351Z,-5.40
2018-03-17T20:45:53.305Z,-5.40
2018-03-17T20:49:04.744Z,-5.40
2018-03-17T20:52:14.824Z,-5.40
2018-03-17T20:55:26.213Z,-5.40
2018-03-17T20:58:37.004Z,-5.40
2018-03-17T21:01:47.143Z,-5.40
2018-03-17T21:04:56.961Z,-5.50
2018-03-17T21:08:07.741Z,-5.50
2018-03-17T21:11:18.577Z,-5.50
2018-03-17T21:14:29.312Z,-5.40
2018-03-17T21:17:40.040Z,-5.40
2018-03-17T21:20:50.864Z,-5.50
2018-03-17T21:24:01.558Z,-5.40
2018-03-17T21:27:12.682Z,-5.50
2018-03-17T21:30:23.400Z,-5.50
2018-03-17T21:33:33.350Z,-5.50
2018-03-17T21:36:44.011Z,-5.50
2018-03-17T21:39:55.031Z,-5.50
2018-03-17T21:43:05.948Z,-5.40
2018-03-17T21:46:16.254Z,-5.50
2018-03-17T21:49:26.229Z,-5.40
2018-03-17T21:52:37.202Z,-5.50
2018-03-17T21:55:47.770Z,-5.40
2018-03-17T21:58:58.426Z,-5.50
2018-03-17T22:02:08.467Z,-5.50
2018-03-17T22:05:18.408Z,-5.50
2018-03-17T22:08:28.190Z,-5.50
2018-03-17T22:11:38.138Z,-5.40
2018-03-17T22:14:47.985Z,-5.50
2018-03-17T22:17:58.621Z,-5.50
2018-03-17T22:21:08.549Z,-5.40
2018-03-17T22:24:18.376Z,-5.40
2018-03-17T22:27:28.223Z,-5.50
2018-03-17T22:30:38.085Z,-5.50
2018-03-17T22:33:50.559Z,-5.50
2018-03-17T22:37:00.751Z,-5.50
2018-03-17T22:40:10.626Z,-5.40
2018-03-17T22:43:20.964Z,-5.50
2018-03-17T22:46:31.555Z,-5.40
2018-03-17T22:49:41.475Z,-5.40
2018-03-17T22:52:51.520Z,-5.50
2018-03-17T22:56:01.281Z,-5.40
2018-03-17T22:59:11.195Z,-5.40
2018-03-17T23:02:20.942Z,-5.40
2018-03-17T23:05:30.764Z,-5.40
2018-03-17T23:08:40.757Z,-5.40
2018-03-17T23:11:50.734Z,-5.40
2018-03-17T23:15:01.444Z,-5.40
2018-03-17T23:18:11.244Z,-5.50
2018-03-17T23:21:21.324Z,-5.40
2018-03-17T23:24:32.826Z,-5.40
2018-03-17T23:27:42.852Z,-5.40
2018-03-17T23:30:52.677Z,-5.40
2018-03-17T23:34:02.534Z,-5.40
2018-03-17T23:37:12.468Z,-5.40
2018-03-17T23:40:22.935Z,-5.40
2018-03-17T23:43:32.596Z,-5.40
2018-03-17T23:46:42.296Z,-5.40
2018-03-17T23:49:51.918Z,-5.40
2018-03-17T23:53:01.784Z,-5.50
2018-03-17T23:56:11.708Z,-5.40
2018-03-17T23:59:21.763Z,-5.50
